createdAt,value
2022-08-03T00:00:24.187Z,20.80
2022-08-03T00:02:56.015Z,20.80
2022-08-03T00:05:27.497Z,20.80
2022-08-03T00:07:59.043Z,20.70
2022-08-03T00:10:31.358Z,20.70
2022-08-03T00:13:02.767Z,20.70
2022-08-03T00:15:34.315Z,20.70
2022-08-03T00:18:05.748Z,20.70
2022-08-03T00:20:37.749Z,20.70
2022-08-03T00:23:09.333Z,20.80
2022-08-03T00:25:41.290Z,20.70
2022-08-03T00:28:13.788Z,20.70
2022-08-03T00:30:47.166Z,20.70
2022-08-03T00:33:18.716Z,20.70
2022-08-03T00:35:52.476Z,20.70
2022-08-03T00:38:23.867Z,20.70
2022-08-03T00:40:55.866Z,20.70
2022-08-03T00:43:28.412Z,20.70
2022-08-03T00:46:00.028Z,20.70
2022-08-03T00:48:33.732Z,20.70
2022-08-03T00:51:04.825Z,20.80
2022-08-03T00:53:37.893Z,20.80
2022-08-03T00:56:09.323Z,20.80
2022-08-03T00:58:40.820Z,20.80
2022-08-03T01:01:12.659Z,20.80
2022-08-03T01:03:44.424Z,20.80
2022-08-03T01:06:19.382Z,20.80
2022-08-03T01:08:54.353Z,20.90
2022-08-03T01:11:30.434Z,20.90
2022-08-03T01:14:19.291Z,21.00
2022-08-03T01:16:43.784Z,21.00
2022-08-03T01:19:22.311Z,21.00
2022-08-03T01:21:57.700Z,21.00
2022-08-03T01:24:36.322Z,20.90
2022-08-03T01:27:12.330Z,20.90
2022-08-03T01:30:00.303Z,20.90
2022-08-03T01:32:59.109Z,20.90
2022-08-03T01:35:16.627Z,20.80
2022-08-03T01:37:51.506Z,20.70
2022-08-03T01:40:24.802Z,20.60
2022-08-03T01:42:59.519Z,20.40
2022-08-03T01:45:34.066Z,20.20
2022-08-03T01:48:07.089Z,20.10
2022-08-03T01:50:38.872Z,19.90
2022-08-03T01:53:13.142Z,19.80
2022-08-03T01:55:46.812Z,19.80
2022-08-03T01:58:20.077Z,19.70
2022-08-03T02:00:52.843Z,19.70
2022-08-03T02:03:25.451Z,19.60
2022-08-03T02:06:56.835Z,19.50
2022-08-03T02:08:33.702Z,19.50
2022-08-03T02:11:06.948Z,19.60
2022-08-03T02:13:39.254Z,19.60
2022-08-03T02:16:12.374Z,19.60
2022-08-03T02:18:44.468Z,19.60
2022-08-03T02:21:55.718Z,19.70
2022-08-03T02:23:51.344Z,19.70
2022-08-03T02:26:25.144Z,19.70
2022-08-03T02:28:59.757Z,19.70
2022-08-03T02:31:35.530Z,19.80
2022-08-03T02:34:09.815Z,19.80
2022-08-03T02:36:42.034Z,19.80
2022-08-03T02:39:16.801Z,19.90
2022-08-03T02:41:50.809Z,20.00
2022-08-03T02:44:25.000Z,20.00
2022-08-03T02:46:59.657Z,20.00
2022-08-03T02:49:42.708Z,20.00
2022-08-03T02:52:08.541Z,20.00
2022-08-03T02:54:42.545Z,20.00
2022-08-03T02:57:15.181Z,20.00
2022-08-03T02:59:47.253Z,19.90
2022-08-03T03:02:19.324Z,20.00
2022-08-03T03:05:01.350Z,20.00
2022-08-03T03:07:28.776Z,20.00
2022-08-03T03:10:01.640Z,19.90
2022-08-03T03:12:34.230Z,19.90
2022-08-03T03:15:08.225Z,19.80
2022-08-03T03:17:40.031Z,19.70
2022-08-03T03:20:13.292Z,19.60
2022-08-03T03:22:45.850Z,19.50
2022-08-03T03:25:18.208Z,19.50
2022-08-03T03:27:50.903Z,19.50
2022-08-03T03:30:22.811Z,19.50
2022-08-03T03:32:54.511Z,19.50
2022-08-03T03:35:26.165Z,19.50
2022-08-03T03:37:57.762Z,19.50
2022-08-03T03:40:29.274Z,19.60
2022-08-03T03:43:00.853Z,19.50
2022-08-03T03:45:34.745Z,19.40
2022-08-03T03:48:08.026Z,19.40
2022-08-03T03:50:40.837Z,19.40
2022-08-03T03:53:13.245Z,19.40
2022-08-03T03:55:57.782Z,19.40
2022-08-03T03:58:17.845Z,19.40
2022-08-03T04:00:49.682Z,19.50
2022-08-03T04:03:21.184Z,19.50
2022-08-03T04:06:10.032Z,19.50
2022-08-03T04:09:01.394Z,19.50
2022-08-03T04:11:36.626Z,19.50
2022-08-03T04:14:11.377Z,19.40
2022-08-03T04:16:46.005Z,19.40
2022-08-03T04:19:23.326Z,19.30
2022-08-03T04:21:57.056Z,19.30
2022-08-03T04:24:31.931Z,19.30
2022-08-03T04:27:06.617Z,19.20
2022-08-03T04:29:46.395Z,19.20
2022-08-03T04:32:15.122Z,19.20
2022-08-03T04:34:46.964Z,19.20
2022-08-03T04:37:22.041Z,19.80
2022-08-03T04:39:57.621Z,20.60
2022-08-03T04:42:29.414Z,21.40
2022-08-03T04:45:01.801Z,22.20
2022-08-03T04:47:34.977Z,22.60
2022-08-03T04:50:12.194Z,23.00
2022-08-03T04:52:41.413Z,23.30
2022-08-03T04:55:13.182Z,23.30
2022-08-03T04:57:44.876Z,22.60
2022-08-03T05:00:18.516Z,22.00
2022-08-03T05:02:50.030Z,21.90
2022-08-03T05:05:22.051Z,22.50
2022-08-03T05:07:54.446Z,22.40
2022-08-03T05:10:26.923Z,22.80
2022-08-03T05:12:58.050Z,23.70
2022-08-03T05:15:30.060Z,24.20
2022-08-03T05:18:01.447Z,23.80
2022-08-03T05:20:32.992Z,23.80
2022-08-03T05:23:04.294Z,25.00
2022-08-03T05:25:35.755Z,26.10
2022-08-03T05:28:08.146Z,26.80
2022-08-03T05:30:39.725Z,27.20
2022-08-03T05:33:11.503Z,27.70
2022-08-03T05:36:02.021Z,28.20
2022-08-03T05:38:24.292Z,28.60
2022-08-03T05:40:57.211Z,29.40
2022-08-03T05:43:22.668Z,29.80
2022-08-03T05:46:11.728Z,30.30
2022-08-03T05:48:28.826Z,30.90
2022-08-03T05:51:00.135Z,31.60
2022-08-03T05:53:34.584Z,31.30
2022-08-03T05:56:13.601Z,30.70
2022-08-03T05:58:40.162Z,30.60
2022-08-03T06:01:11.741Z,30.90
2022-08-03T06:03:43.126Z,30.50
2022-08-03T06:06:14.968Z,30.90
2022-08-03T06:08:48.836Z,31.30
2022-08-03T06:11:20.522Z,31.50
2022-08-03T06:13:51.909Z,31.70
2022-08-03T06:16:23.483Z,31.80
2022-08-03T06:18:54.968Z,31.70
2022-08-03T06:21:27.210Z,31.40
2022-08-03T06:23:58.651Z,31.10
2022-08-03T06:26:30.334Z,31.30
2022-08-03T06:29:03.794Z,31.80
2022-08-03T06:31:34.839Z,32.40
2022-08-03T06:34:34.095Z,32.10
2022-08-03T06:36:40.632Z,32.10
2022-08-03T06:39:13.745Z,32.50
2022-08-03T06:41:45.652Z,32.80
2022-08-03T06:44:17.100Z,32.70
2022-08-03T06:46:48.407Z,32.90
2022-08-03T06:49:19.937Z,33.30
2022-08-03T06:52:05.369Z,33.50
2022-08-03T06:54:25.504Z,34.30
2022-08-03T06:56:56.798Z,34.60
2022-08-03T07:00:07.823Z,34.90
2022-08-03T07:02:01.161Z,35.20
2022-08-03T07:04:33.302Z,35.30
2022-08-03T07:07:04.687Z,34.60
2022-08-03T07:09:36.117Z,34.40
2022-08-03T07:12:08.370Z,34.60
2022-08-03T07:14:40.001Z,33.60
2022-08-03T07:17:11.981Z,32.80
2022-08-03T07:19:43.627Z,32.70
2022-08-03T07:22:15.045Z,32.50
2022-08-03T07:24:47.693Z,32.60
2022-08-03T07:27:19.263Z,32.60
2022-08-03T07:29:50.668Z,32.60
2022-08-03T07:32:22.063Z,32.10
2022-08-03T07:34:58.334Z,31.00
2022-08-03T07:37:26.567Z,30.20
2022-08-03T07:39:57.960Z,29.50
2022-08-03T07:42:35.314Z,28.90
2022-08-03T07:45:16.804Z,28.20
2022-08-03T07:47:46.178Z,27.50
2022-08-03T07:50:19.051Z,27.10
2022-08-03T07:52:55.414Z,27.00
2022-08-03T07:55:31.800Z,27.00
2022-08-03T07:58:09.883Z,26.80
2022-08-03T08:00:42.334Z,27.00
2022-08-03T08:03:13.999Z,27.10
2022-08-03T08:05:52.786Z,27.30
2022-08-03T08:08:33.560Z,27.40
2022-08-03T08:11:23.055Z,27.40
2022-08-03T08:13:55.300Z,27.40
2022-08-03T08:16:29.974Z,27.50
2022-08-03T08:19:02.466Z,27.40
2022-08-03T08:21:54.081Z,27.30
2022-08-03T08:24:36.128Z,27.40
2022-08-03T08:27:13.298Z,27.30
2022-08-03T08:29:54.186Z,27.10
2022-08-03T08:32:30.385Z,27.30
2022-08-03T08:35:05.790Z,27.50
2022-08-03T08:37:38.577Z,27.20
2022-08-03T08:40:13.402Z,27.10
2022-08-03T08:42:58.034Z,27.20
2022-08-03T08:45:22.522Z,27.30
2022-08-03T08:48:00.817Z,27.70
2022-08-03T08:50:29.912Z,27.80
2022-08-03T08:53:04.039Z,27.90
2022-08-03T08:55:59.939Z,27.90
2022-08-03T08:58:12.937Z,27.90
2022-08-03T09:00:48.279Z,28.20
2022-08-03T09:03:29.192Z,28.00
2022-08-03T09:05:56.231Z,28.20
2022-08-03T09:08:26.650Z,28.50
2022-08-03T09:10:58.203Z,28.40
2022-08-03T09:13:30.339Z,28.40
2022-08-03T09:16:15.867Z,28.30
2022-08-03T09:18:49.055Z,28.30
2022-08-03T09:21:34.285Z,28.50
2022-08-03T09:24:02.750Z,28.80
2022-08-03T09:26:34.576Z,29.00
2022-08-03T09:29:18.426Z,29.10
2022-08-03T09:31:51.487Z,29.10
2022-08-03T09:34:25.832Z,29.20
2022-08-03T09:36:59.820Z,29.20
2022-08-03T09:39:41.966Z,29.30
2022-08-03T09:42:08.382Z,29.70
2022-08-03T09:44:42.109Z,30.00
2022-08-03T09:47:14.841Z,30.40
2022-08-03T09:49:57.790Z,30.40
2022-08-03T09:52:50.057Z,30.50
2022-08-03T09:56:01.582Z,30.30
2022-08-03T09:57:47.992Z,30.20
2022-08-03T10:00:20.660Z,30.10
2022-08-03T10:02:54.964Z,30.20
2022-08-03T10:05:33.610Z,30.30
2022-08-03T10:08:08.176Z,30.00
2022-08-03T10:10:45.157Z,29.90
2022-08-03T10:13:18.801Z,30.10
2022-08-03T10:16:22.879Z,30.10
2022-08-03T10:18:23.613Z,30.10
2022-08-03T10:20:56.790Z,30.10
2022-08-03T10:23:33.160Z,30.00
2022-08-03T10:26:04.042Z,30.00
2022-08-03T10:28:44.315Z,30.00
2022-08-03T10:31:12.254Z,29.80
2022-08-03T10:33:49.773Z,29.80
2022-08-03T10:36:20.128Z,29.70
2022-08-03T10:38:54.014Z,29.60
2022-08-03T10:41:28.550Z,29.70
2022-08-03T10:44:04.303Z,29.80
2022-08-03T10:46:40.315Z,30.00
2022-08-03T10:49:13.151Z,30.00
2022-08-03T10:51:45.533Z,30.10
2022-08-03T10:54:47.859Z,30.30
2022-08-03T10:57:58.833Z,30.10
2022-08-03T11:00:28.368Z,30.10
2022-08-03T11:03:14.388Z,30.00
2022-08-03T11:05:46.795Z,29.90
2022-08-03T11:08:32.441Z,29.90
2022-08-03T11:11:06.905Z,30.10
2022-08-03T11:13:38.474Z,30.10
2022-08-03T11:16:23.080Z,30.30
2022-08-03T11:19:03.895Z,30.40
2022-08-03T11:25:05.928Z,30.60
2022-08-03T11:27:38.710Z,30.50
2022-08-03T11:30:14.633Z,30.50
2022-08-03T11:32:59.328Z,30.60
2022-08-03T11:35:35.539Z,30.60
2022-08-03T11:38:13.793Z,30.70
2022-08-03T11:40:47.685Z,30.80
2022-08-03T11:43:45.815Z,30.90
2022-08-03T11:46:28.148Z,30.90
2022-08-03T11:48:57.696Z,31.10
2022-08-03T11:51:31.982Z,31.20
2022-08-03T11:54:05.354Z,31.20
2022-08-03T11:56:47.857Z,31.20
2022-08-03T11:59:22.222Z,31.40
2022-08-03T12:01:53.022Z,31.20
2022-08-03T12:04:24.534Z,31.10
2022-08-03T12:07:02.333Z,31.00
2022-08-03T12:09:35.407Z,30.90
2022-08-03T12:12:07.682Z,30.90
2022-08-03T12:14:49.730Z,31.10
2022-08-03T12:17:12.215Z,31.10
2022-08-03T12:19:45.186Z,31.00
2022-08-03T12:22:17.479Z,31.10
2022-08-03T12:24:48.956Z,31.20
2022-08-03T12:27:29.952Z,31.30
2022-08-03T12:30:03.083Z,31.40
2022-08-03T12:32:34.742Z,31.50
2022-08-03T12:35:07.628Z,31.50
2022-08-03T12:37:39.161Z,31.60
2022-08-03T12:40:17.796Z,31.70
2022-08-03T12:42:49.902Z,31.70
2022-08-03T12:45:22.281Z,31.70
2022-08-03T12:47:58.185Z,31.50
2022-08-03T12:50:31.766Z,31.60
2022-08-03T12:53:05.599Z,31.70
2022-08-03T12:55:57.184Z,31.70
2022-08-03T12:58:18.920Z,31.80
2022-08-03T13:00:58.171Z,31.80
2022-08-03T13:03:39.055Z,31.90
2022-08-03T13:06:02.666Z,32.00
2022-08-03T13:08:34.079Z,32.10
2022-08-03T13:11:47.568Z,32.20
2022-08-03T13:13:58.105Z,32.30
2022-08-03T13:16:29.634Z,32.30
2022-08-03T13:19:01.313Z,32.40
2022-08-03T13:21:33.018Z,32.50
2022-08-03T13:24:04.600Z,32.60
2022-08-03T13:26:36.021Z,32.60
2022-08-03T13:29:17.177Z,32.60
2022-08-03T13:31:50.922Z,32.50
2022-08-03T13:34:23.843Z,32.50
2022-08-03T13:37:10.451Z,32.50
2022-08-03T13:39:32.531Z,32.50
2022-08-03T13:42:01.294Z,32.60
2022-08-03T13:44:34.804Z,32.60
2022-08-03T13:47:06.810Z,32.60
2022-08-03T13:49:38.793Z,32.60
2022-08-03T13:52:10.163Z,32.50
2022-08-03T13:54:41.577Z,32.60
2022-08-03T13:58:04.319Z,32.60
2022-08-03T13:59:47.654Z,32.60
2022-08-03T14:02:19.059Z,32.60
2022-08-03T14:04:50.284Z,32.80
2022-08-03T14:07:21.846Z,32.80
2022-08-03T14:09:53.501Z,32.90
2022-08-03T14:12:24.873Z,32.90
2022-08-03T14:14:58.370Z,32.90
2022-08-03T14:17:42.340Z,32.80
2022-08-03T14:20:04.873Z,32.80
2022-08-03T14:22:37.978Z,32.80
2022-08-03T14:25:10.761Z,32.90
2022-08-03T14:27:43.677Z,33.00
2022-08-03T14:30:15.675Z,33.00
2022-08-03T14:32:46.997Z,33.00
2022-08-03T14:35:18.469Z,33.10
2022-08-03T14:37:50.025Z,33.20
2022-08-03T14:40:21.723Z,33.20
2022-08-03T14:42:53.308Z,33.20
2022-08-03T14:45:25.354Z,33.20
2022-08-03T14:50:33.073Z,33.20
2022-08-03T14:50:41.031Z,33.20
2022-08-03T14:53:05.001Z,33.10
2022-08-03T14:55:38.465Z,33.10
2022-08-03T14:58:20.001Z,33.20
2022-08-03T15:00:41.889Z,33.20
2022-08-03T15:03:13.282Z,33.20
2022-08-03T15:05:46.423Z,33.10
2022-08-03T15:08:17.832Z,33.10
2022-08-03T15:10:49.617Z,33.20
2022-08-03T15:13:21.614Z,33.20
2022-08-03T15:15:56.190Z,33.20
2022-08-03T15:18:27.655Z,33.30
2022-08-03T15:20:58.964Z,33.30
2022-08-03T15:23:30.348Z,33.30
2022-08-03T15:26:30.790Z,33.40
2022-08-03T15:28:37.302Z,33.30
2022-08-03T15:31:08.317Z,33.30
2022-08-03T15:33:40.150Z,33.30
2022-08-03T15:36:11.629Z,33.30
2022-08-03T15:38:43.333Z,33.30
2022-08-03T15:41:14.768Z,33.20
2022-08-03T15:43:47.678Z,33.20
2022-08-03T15:46:29.223Z,33.30
2022-08-03T15:48:52.250Z,33.30
2022-08-03T15:51:23.662Z,33.30
2022-08-03T15:53:56.077Z,33.40
2022-08-03T15:56:27.390Z,33.40
2022-08-03T15:59:11.180Z,33.20
2022-08-03T16:01:32.921Z,33.20
2022-08-03T16:04:04.639Z,33.20
2022-08-03T16:06:36.565Z,33.20
2022-08-03T16:09:23.901Z,33.10
2022-08-03T16:11:42.677Z,33.00
2022-08-03T16:14:31.129Z,33.00
2022-08-03T16:16:47.118Z,33.10
2022-08-03T16:19:18.653Z,33.00
2022-08-03T16:21:50.409Z,33.10
2022-08-03T16:24:22.053Z,33.10
2022-08-03T16:26:55.123Z,33.00
2022-08-03T16:29:26.408Z,33.00
2022-08-03T16:31:57.811Z,33.00
2022-08-03T16:34:29.168Z,32.90
2022-08-03T16:37:16.472Z,32.90
2022-08-03T16:39:34.606Z,32.80
2022-08-03T16:42:06.337Z,32.90
2022-08-03T16:44:37.977Z,32.80
2022-08-03T16:47:09.612Z,32.80
2022-08-03T16:49:54.832Z,32.80
2022-08-03T16:53:03.588Z,32.70
2022-08-03T16:55:43.345Z,32.60
2022-08-03T16:58:09.129Z,32.60
2022-08-03T17:00:43.063Z,32.60
2022-08-03T17:03:18.803Z,32.50
2022-08-03T17:05:50.809Z,32.40
2022-08-03T17:08:26.939Z,32.40
2022-08-03T17:10:57.235Z,32.40
2022-08-03T17:13:39.183Z,32.30
2022-08-03T17:16:04.704Z,32.20
2022-08-03T17:18:42.268Z,32.20
2022-08-03T17:21:16.723Z,32.20
2022-08-03T17:23:51.944Z,32.20
2022-08-03T17:26:30.304Z,32.00
2022-08-03T17:29:11.150Z,31.80
2022-08-03T17:31:46.705Z,31.70
2022-08-03T17:34:14.055Z,31.50
2022-08-03T17:37:04.176Z,31.40
2022-08-03T17:39:31.213Z,31.30
2022-08-03T17:41:55.283Z,31.20
2022-08-03T17:44:37.666Z,31.10
2022-08-03T17:47:01.968Z,31.00
2022-08-03T17:49:40.187Z,30.90
2022-08-03T17:52:10.000Z,30.90
2022-08-03T17:55:51.527Z,30.90
2022-08-03T17:59:59.757Z,30.80
2022-08-03T18:02:54.521Z,30.80
2022-08-03T18:06:11.575Z,30.70
2022-08-03T18:08:09.417Z,30.60
2022-08-03T18:10:49.724Z,30.50
2022-08-03T18:13:14.197Z,30.40
2022-08-03T18:15:48.146Z,30.40
2022-08-03T18:18:29.290Z,30.30
2022-08-03T18:20:54.177Z,30.20
2022-08-03T18:23:36.588Z,30.20
2022-08-03T18:26:04.912Z,30.10
2022-08-03T18:28:38.364Z,30.00
2022-08-03T18:31:12.948Z,30.00
2022-08-03T18:34:19.021Z,29.80
2022-08-03T18:36:30.091Z,29.70
2022-08-03T18:38:55.680Z,29.60
2022-08-03T18:41:32.283Z,29.40
2022-08-03T18:44:06.643Z,29.30
2022-08-03T18:46:45.801Z,29.10
2022-08-03T18:49:23.500Z,29.10
2022-08-03T18:51:58.747Z,28.90
2022-08-03T18:54:46.601Z,28.80
2022-08-03T18:57:07.645Z,28.70
2022-08-03T18:59:44.772Z,28.50
2022-08-03T19:02:19.713Z,28.40
2022-08-03T19:04:54.789Z,28.30
2022-08-03T19:07:36.066Z,28.20
2022-08-03T19:10:10.164Z,28.10
2022-08-03T19:12:45.037Z,28.00
2022-08-03T19:15:16.817Z,27.80
2022-08-03T19:17:52.803Z,27.70
2022-08-03T19:20:26.177Z,27.60
2022-08-03T19:23:00.193Z,27.50
2022-08-03T19:25:35.310Z,27.30
2022-08-03T19:28:07.546Z,27.20
2022-08-03T19:30:40.550Z,27.00
2022-08-03T19:33:15.487Z,26.70
2022-08-03T19:35:55.244Z,26.60
2022-08-03T19:38:28.673Z,26.50
2022-08-03T19:40:59.821Z,26.40
2022-08-03T19:43:53.117Z,26.30
2022-08-03T19:46:12.944Z,26.30
2022-08-03T19:48:52.010Z,26.40
2022-08-03T19:51:58.572Z,26.40
2022-08-03T19:53:58.490Z,26.40
2022-08-03T19:56:31.166Z,26.40
2022-08-03T19:59:04.146Z,26.50
2022-08-03T20:01:50.774Z,26.40
2022-08-03T20:04:11.882Z,26.50
2022-08-03T20:06:47.158Z,26.40
2022-08-03T20:09:21.337Z,26.30
2022-08-03T20:11:53.411Z,26.30
2022-08-03T20:14:26.462Z,26.20
2022-08-03T20:16:58.133Z,26.10
2022-08-03T20:19:32.486Z,26.00
2022-08-03T20:22:03.067Z,25.90
2022-08-03T20:24:36.070Z,25.80
2022-08-03T20:27:09.317Z,25.70
2022-08-03T20:30:07.265Z,25.60
2022-08-03T20:32:24.638Z,25.40
2022-08-03T20:34:54.300Z,25.30
2022-08-03T20:37:26.891Z,25.20
2022-08-03T20:39:59.889Z,25.10
2022-08-03T20:42:31.369Z,24.90
2022-08-03T20:45:05.609Z,24.90
2022-08-03T20:47:36.955Z,24.80
2022-08-03T20:50:12.039Z,24.80
2022-08-03T20:52:49.384Z,24.80
2022-08-03T20:55:17.454Z,24.70
2022-08-03T20:57:49.192Z,24.70
2022-08-03T21:00:22.219Z,24.60
2022-08-03T21:02:53.671Z,24.60
2022-08-03T21:05:47.745Z,24.60
2022-08-03T21:08:06.274Z,24.70
2022-08-03T21:10:38.190Z,24.70
2022-08-03T21:13:05.814Z,30.90
2022-08-03T21:13:18.524Z,24.70
2022-08-03T21:16:11.389Z,24.70
2022-08-03T21:18:24.091Z,24.70
2022-08-03T21:20:58.307Z,24.70
2022-08-03T21:23:39.965Z,24.70
2022-08-03T21:26:06.509Z,24.60
2022-08-03T21:28:41.591Z,24.50
2022-08-03T21:31:14.048Z,24.50
2022-08-03T21:33:47.082Z,24.40
2022-08-03T21:36:18.824Z,24.30
2022-08-03T21:38:56.229Z,24.30
2022-08-03T21:41:23.454Z,24.30
2022-08-03T21:43:55.029Z,24.40
2022-08-03T21:46:29.519Z,24.40
2022-08-03T21:50:02.642Z,24.50
2022-08-03T21:51:38.935Z,24.50
2022-08-03T21:54:12.010Z,24.50
2022-08-03T21:56:45.963Z,24.50
2022-08-03T21:59:20.787Z,24.60
2022-08-03T22:01:58.443Z,24.50
2022-08-03T22:04:50.315Z,24.50
2022-08-03T22:07:02.284Z,24.40
2022-08-03T22:09:35.220Z,24.40
2022-08-03T22:12:08.866Z,24.20
2022-08-03T22:14:40.949Z,24.20
2022-08-03T22:17:12.559Z,24.10
2022-08-03T22:19:45.524Z,24.10
2022-08-03T22:22:19.574Z,24.00
2022-08-03T22:24:54.406Z,24.00
2022-08-03T22:27:32.409Z,24.00
2022-08-03T22:30:06.013Z,23.90
2022-08-03T22:32:39.134Z,23.90
2022-08-03T22:35:12.156Z,24.00
2022-08-03T22:37:45.891Z,24.00
2022-08-03T22:40:18.416Z,24.00
2022-08-03T22:42:50.498Z,24.00
2022-08-03T22:46:08.520Z,24.00
2022-08-03T22:47:57.196Z,23.90
2022-08-03T22:50:31.435Z,23.80
2022-08-03T22:53:03.686Z,23.70
2022-08-03T22:55:37.084Z,23.70
2022-08-03T22:58:08.464Z,23.70
2022-08-03T23:00:44.884Z,23.60
2022-08-03T23:03:16.916Z,23.60
2022-08-03T23:06:02.102Z,23.50
2022-08-03T23:08:27.741Z,23.50
2022-08-03T23:11:02.542Z,23.40
2022-08-03T23:13:35.096Z,23.20
2022-08-03T23:16:07.644Z,23.20
2022-08-03T23:18:40.651Z,23.00
2022-08-03T23:21:15.260Z,23.00
2022-08-03T23:23:46.452Z,22.80
2022-08-03T23:26:19.710Z,22.80
2022-08-03T23:28:52.188Z,22.70
2022-08-03T23:31:23.966Z,22.70
2022-08-03T23:34:16.711Z,22.70
2022-08-03T23:36:50.585Z,22.70
2022-08-03T23:39:23.605Z,22.80
2022-08-03T23:41:56.338Z,22.80
2022-08-03T23:44:30.676Z,22.80
2022-08-03T23:47:02.278Z,22.80
2022-08-03T23:49:33.661Z,22.90
2022-08-03T23:52:09.886Z,22.90
2022-08-03T23:54:47.415Z,22.90
2022-08-03T23:57:23.183Z,23.00
2022-08-03T23:59:58.884Z,22.90
